sensor_id;sensor_type;location;lat;lon;timestamp;P1;P2;P0
74440;PMS7003;62870;54.692;25.284;2024-02-14T00:04:07;3.2;3.2;2.6
74440;PMS7003;62870;54.692;25.284;2024-02-14T00:09:07;2.6;2.2;1.8
74440;PMS7003;62870;54.692;25.284;2024-02-14T00:14:58;3;2.8;2
74440;PMS7003;62870;54.692;25.284;2024-02-14T00:19:38;2.8;2.6;2.2
74440;PMS7003;62870;54.692;25.284;2024-02-14T00:24:07;2.6;2.4;2
74440;PMS7003;62870;54.692;25.284;2024-02-14T00:29:57;2.6;2.2;1.8
74440;PMS7003;62870;54.692;25.284;2024-02-14T00:34:47;2.8;2.2;1.4
74440;PMS7003;62870;54.692;25.284;2024-02-14T00:39:27;3;2.6;2
74440;PMS7003;62870;54.692;25.284;2024-02-14T00:44:25;1.4;1.4;1.2
74440;PMS7003;62870;54.692;25.284;2024-02-14T00:49:36;1.8;1.8;1.6
74440;PMS7003;62870;54.692;25.284;2024-02-14T00:54:34;2;1.8;1.4
74440;PMS7003;62870;54.692;25.284;2024-02-14T00:59:57;2.3;2;1
74440;PMS7003;62870;54.692;25.284;2024-02-14T01:04:23;2.2;1.8;1
74440;PMS7003;62870;54.692;25.284;2024-02-14T01:09:57;1;1;0.6
74440;PMS7003;62870;54.692;25.284;2024-02-14T01:14:37;1;1;0.8
74440;PMS7003;62870;54.692;25.284;2024-02-14T01:19:57;1.6;1.4;1.2
74440;PMS7003;62870;54.692;25.284;2024-02-14T01:24:43;2;1.8;1.4
74440;PMS7003;62870;54.692;25.284;2024-02-14T01:29:47;1.8;1.4;0.8
74440;PMS7003;62870;54.692;25.284;2024-02-14T01:34:23;1.4;1.2;0.6
74440;PMS7003;62870;54.692;25.284;2024-02-14T01:39:07;1;0.4;0.4
74440;PMS7003;62870;54.692;25.284;2024-02-14T01:44:16;0.8;0.6;0.4
74440;PMS7003;62870;54.692;25.284;2024-02-14T01:49:58;1;0.8;0.4
74440;PMS7003;62870;54.692;25.284;2024-02-14T01:54:57;0.6;0.6;0.4
74440;PMS7003;62870;54.692;25.284;2024-02-14T01:59:37;0.3;0.3;0.3
74440;PMS7003;62870;54.692;25.284;2024-02-14T02:04:47;0.6;0.6;0.6
74440;PMS7003;62870;54.692;25.284;2024-02-14T02:09:19;0.6;0.4;0.2
74440;PMS7003;62870;54.692;25.284;2024-02-14T02:14:43;0.4;0.4;0.2
74440;PMS7003;62870;54.692;25.284;2024-02-14T02:19:33;0.6;0.4;0.4
74440;PMS7003;62870;54.692;25.284;2024-02-14T02:24:47;0.2;0.2;0
74440;PMS7003;62870;54.692;25.284;2024-02-14T02:29:07;0.4;0.2;0
74440;PMS7003;62870;54.692;25.284;2024-02-14T02:34:26;0.2;0.2;0.2
74440;PMS7003;62870;54.692;25.284;2024-02-14T02:39:23;0.2;0.2;0.2
74440;PMS7003;62870;54.692;25.284;2024-02-14T02:44:45;0.6;0.6;0.6
74440;PMS7003;62870;54.692;25.284;2024-02-14T02:49:23;0;0;0
74440;PMS7003;62870;54.692;25.284;2024-02-14T02:54:57;0.8;0.6;0.2
74440;PMS7003;62870;54.692;25.284;2024-02-14T02:59:16;0.6;0.4;0.4
74440;PMS7003;62870;54.692;25.284;2024-02-14T03:04:25;0.5;0.3;0.3
74440;PMS7003;62870;54.692;25.284;2024-02-14T03:09:08;0.6;0.6;0.2
74440;PMS7003;62870;54.692;25.284;2024-02-14T03:14:15;0.6;0.6;0.2
74440;PMS7003;62870;54.692;25.284;2024-02-14T03:19:15;0.6;0.2;0.2
74440;PMS7003;62870;54.692;25.284;2024-02-14T03:24:57;0.6;0.6;0.2
74440;PMS7003;62870;54.692;25.284;2024-02-14T03:29:57;1.2;0.6;0.4
74440;PMS7003;62870;54.692;25.284;2024-02-14T03:34:27;1;1;0.6
74440;PMS7003;62870;54.692;25.284;2024-02-14T03:39:48;0;0;0
74440;PMS7003;62870;54.692;25.284;2024-02-14T03:44:27;0.4;0.4;0.2
74440;PMS7003;62870;54.692;25.284;2024-02-14T03:49:42;0;0;0
74440;PMS7003;62870;54.692;25.284;2024-02-14T03:54:33;0.6;0.4;0.2
74440;PMS7003;62870;54.692;25.284;2024-02-14T03:59:47;0.6;0.4;0.2
74440;PMS7003;62870;54.692;25.284;2024-02-14T04:04:26;1;1;0.5
74440;PMS7003;62870;54.692;25.284;2024-02-14T04:09:09;0.4;0.2;0.2
74440;PMS7003;62870;54.692;25.284;2024-02-14T04:14:56;1;0.6;0.4
74440;PMS7003;62870;54.692;25.284;2024-02-14T04:19:56;1.2;0.4;0.2
74440;PMS7003;62870;54.692;25.284;2024-02-14T04:24:13;0.6;0.6;0.4
74440;PMS7003;62870;54.692;25.284;2024-02-14T04:29:22;0.6;0.6;0.2
74440;PMS7003;62870;54.692;25.284;2024-02-14T04:34:58;0.6;0.2;0.2
74440;PMS7003;62870;54.692;25.284;2024-02-14T04:39:28;0.6;0.6;0.4
74440;PMS7003;62870;54.692;25.284;2024-02-14T04:44:38;0.2;0.2;0.2
74440;PMS7003;62870;54.692;25.284;2024-02-14T04:49:28;0.2;0;0
74440;PMS7003;62870;54.692;25.284;2024-02-14T04:54:26;0.2;0.2;0
74440;PMS7003;62870;54.692;25.284;2024-02-14T04:59:16;0.2;0;0
74440;PMS7003;62870;54.692;25.284;2024-02-14T05:04:58;0;0;0
74440;PMS7003;62870;54.692;25.284;2024-02-14T05:09:16;0;0;0
74440;PMS7003;62870;54.692;25.284;2024-02-14T05:14:56;0;0;0
74440;PMS7003;62870;54.692;25.284;2024-02-14T05:19:28;0.2;0;0
74440;PMS7003;62870;54.692;25.284;2024-02-14T05:24:56;0.2;0.2;0.2
74440;PMS7003;62870;54.692;25.284;2024-02-14T05:29:34;0;0;0
74440;PMS7003;62870;54.692;25.284;2024-02-14T05:34:46;0;0;0
74440;PMS7003;62870;54.692;25.284;2024-02-14T05:39:58;0;0;0
74440;PMS7003;62870;54.692;25.284;2024-02-14T05:44:58;0;0;0
74440;PMS7003;62870;54.692;25.284;2024-02-14T05:49:44;0;0;0
74440;PMS7003;62870;54.692;25.284;2024-02-14T05:54:26;0;0;0
74440;PMS7003;62870;54.692;25.284;2024-02-14T05:59:58;0.2;0.2;0
74440;PMS7003;62870;54.692;25.284;2024-02-14T06:04:36;0.3;0.3;0
74440;PMS7003;62870;54.692;25.284;2024-02-14T06:09:10;0.2;0;0
74440;PMS7003;62870;54.692;25.284;2024-02-14T06:14:24;0;0;0
74440;PMS7003;62870;54.692;25.284;2024-02-14T06:19:16;0;0;0
74440;PMS7003;62870;54.692;25.284;2024-02-14T06:24:40;0;0;0
74440;PMS7003;62870;54.692;25.284;2024-02-14T06:29:48;0;0;0
74440;PMS7003;62870;54.692;25.284;2024-02-14T06:34:36;0;0;0
74440;PMS7003;62870;54.692;25.284;2024-02-14T06:39:08;0;0;0
74440;PMS7003;62870;54.692;25.284;2024-02-14T06:44:48;0;0;0
74440;PMS7003;62870;54.692;25.284;2024-02-14T06:49:58;0.2;0;0
74440;PMS7003;62870;54.692;25.284;2024-02-14T06:54:18;0.2;0;0
74440;PMS7003;62870;54.692;25.284;2024-02-14T06:59:28;0;0;0
74440;PMS7003;62870;54.692;25.284;2024-02-14T07:04:08;0;0;0
74440;PMS7003;62870;54.692;25.284;2024-02-14T07:09:48;0;0;0
74440;PMS7003;62870;54.692;25.284;2024-02-14T07:14:58;0;0;0
74440;PMS7003;62870;54.692;25.284;2024-02-14T07:19:58;0;0;0
74440;PMS7003;62870;54.692;25.284;2024-02-14T07:24:44;0;0;0
74440;PMS7003;62870;54.692;25.284;2024-02-14T07:29:58;0;0;0
74440;PMS7003;62870;54.692;25.284;2024-02-14T07:34:56;0;0;0
74440;PMS7003;62870;54.692;25.284;2024-02-14T07:39:38;0.2;0;0
74440;PMS7003;62870;54.692;25.284;2024-02-14T07:44:44;0;0;0
74440;PMS7003;62870;54.692;25.284;2024-02-14T07:49:24;0;0;0
74440;PMS7003;62870;54.692;25.284;2024-02-14T07:54:34;0;0;0
74440;PMS7003;62870;54.692;25.284;2024-02-14T07:59:20;0.2;0;0
74440;PMS7003;62870;54.692;25.284;2024-02-14T08:04:58;0;0;0
74440;PMS7003;62870;54.692;25.284;2024-02-14T08:09:08;0;0;0
74440;PMS7003;62870;54.692;25.284;2024-02-14T08:14:20;0.2;0;0
74440;PMS7003;62870;54.692;25.284;2024-02-14T08:19:08;0;0;0
74440;PMS7003;62870;54.692;25.284;2024-02-14T08:24:58;0;0;0
74440;PMS7003;62870;54.692;25.284;2024-02-14T08:29:38;0.2;0.2;0.2
74440;PMS7003;62870;54.692;25.284;2024-02-14T08:34:08;0;0;0
74440;PMS7003;62870;54.692;25.284;2024-02-14T08:39:58;0;0;0
74440;PMS7003;62870;54.692;25.284;2024-02-14T08:44:48;0;0;0
74440;PMS7003;62870;54.692;25.284;2024-02-14T08:49:44;0.2;0.2;0
74440;PMS7003;62870;54.692;25.284;2024-02-14T08:54:48;0;0;0
74440;PMS7003;62870;54.692;25.284;2024-02-14T08:59:44;0;0;0
74440;PMS7003;62870;54.692;25.284;2024-02-14T09:04:34;0;0;0
74440;PMS7003;62870;54.692;25.284;2024-02-14T09:09:58;0;0;0
74440;PMS7003;62870;54.692;25.284;2024-02-14T09:14:36;0.2;0;0
74440;PMS7003;62870;54.692;25.284;2024-02-14T09:19:44;0;0;0
74440;PMS7003;62870;54.692;25.284;2024-02-14T09:24:16;0;0;0
74440;PMS7003;62870;54.692;25.284;2024-02-14T09:29:58;0;0;0
74440;PMS7003;62870;54.692;25.284;2024-02-14T09:34:08;0.8;0.6;0.4
74440;PMS7003;62870;54.692;25.284;2024-02-14T09:39:48;0;0;0
74440;PMS7003;62870;54.692;25.284;2024-02-14T09:44:50;0.2;0;0
74440;PMS7003;62870;54.692;25.284;2024-02-14T09:49:08;0;0;0
74440;PMS7003;62870;54.692;25.284;2024-02-14T09:54:34;0.4;0;0
74440;PMS7003;62870;54.692;25.284;2024-02-14T09:59:58;0.4;0.4;0.4
74440;PMS7003;62870;54.692;25.284;2024-02-14T10:04:58;0.6;0.2;0.2
74440;PMS7003;62870;54.692;25.284;2024-02-14T10:09:08;0;0;0
74440;PMS7003;62870;54.692;25.284;2024-02-14T10:14:48;0.2;0.2;0
74440;PMS7003;62870;54.692;25.284;2024-02-14T10:19:28;0.6;0.2;0
74440;PMS7003;62870;54.692;25.284;2024-02-14T10:24:36;0.8;0.6;0.2
74440;PMS7003;62870;54.692;25.284;2024-02-14T10:29:48;0.2;0.2;0
74440;PMS7003;62870;54.692;25.284;2024-02-14T10:39:08;0.4;0.4;0
74440;PMS7003;62870;54.692;25.284;2024-02-14T10:44:48;0;0;0
74440;PMS7003;62870;54.692;25.284;2024-02-14T10:49:09;0.2;0.2;0.2
74440;PMS7003;62870;54.692;25.284;2024-02-14T10:54:58;0.6;0.4;0.2
74440;PMS7003;62870;54.692;25.284;2024-02-14T10:59:08;0.8;0.8;0.2
74440;PMS7003;62870;54.692;25.284;2024-02-14T11:04:38;0.4;0.4;0
74440;PMS7003;62870;54.692;25.284;2024-02-14T11:10:04;1;0.5;0.3
74440;PMS7003;62870;54.692;25.284;2024-02-14T11:14:29;0.4;0.4;0.2
74440;PMS7003;62870;54.692;25.284;2024-02-14T11:19:30;0;0;0
74440;PMS7003;62870;54.692;25.284;2024-02-14T11:24:09;0.4;0.2;0.2
74440;PMS7003;62870;54.692;25.284;2024-02-14T11:29:34;0.4;0.2;0
74440;PMS7003;62870;54.692;25.284;2024-02-14T11:34:58;0.4;0.2;0.2
74440;PMS7003;62870;54.692;25.284;2024-02-14T11:39:58;0;0;0
74440;PMS7003;62870;54.692;25.284;2024-02-14T11:44:08;0.4;0;0
74440;PMS7003;62870;54.692;25.284;2024-02-14T11:49:10;0.2;0.2;0.2
74440;PMS7003;62870;54.692;25.284;2024-02-14T11:54:28;0.4;0.2;0
74440;PMS7003;62870;54.692;25.284;2024-02-14T11:59:18;0.8;0;0
74440;PMS7003;62870;54.692;25.284;2024-02-14T12:04:34;0.2;0.2;0
74440;PMS7003;62870;54.692;25.284;2024-02-14T12:09:48;0.3;0;0
74440;PMS7003;62870;54.692;25.284;2024-02-14T12:14:36;0.4;0.2;0
74440;PMS7003;62870;54.692;25.284;2024-02-14T12:19:48;1.2;1;0.4
74440;PMS7003;62870;54.692;25.284;2024-02-14T12:24:16;1;0.4;0
74440;PMS7003;62870;54.692;25.284;2024-02-14T12:29:58;0.6;0.4;0
74440;PMS7003;62870;54.692;25.284;2024-02-14T12:34:10;1;0.4;0.2
74440;PMS7003;62870;54.692;25.284;2024-02-14T12:39:38;0.2;0.2;0.2
74440;PMS7003;62870;54.692;25.284;2024-02-14T12:44:58;0.2;0.2;0
74440;PMS7003;62870;54.692;25.284;2024-02-14T12:49:08;0.4;0.2;0.2
74440;PMS7003;62870;54.692;25.284;2024-02-14T12:54:30;1;0.4;0
74440;PMS7003;62870;54.692;25.284;2024-02-14T12:59:48;0.6;0.4;0.2
74440;PMS7003;62870;54.692;25.284;2024-02-14T13:04:34;0.2;0.2;0.2
74440;PMS7003;62870;54.692;25.284;2024-02-14T13:09:08;0.2;0.2;0
74440;PMS7003;62870;54.692;25.284;2024-02-14T13:14:58;0.5;0.5;0.3
74440;PMS7003;62870;54.692;25.284;2024-02-14T13:19:38;0.8;0.8;0
74440;PMS7003;62870;54.692;25.284;2024-02-14T13:24:58;0.6;0.6;0.4
74440;PMS7003;62870;54.692;25.284;2024-02-14T13:29:38;1;0.6;0.2
74440;PMS7003;62870;54.692;25.284;2024-02-14T13:34:48;0.6;0.4;0.2
74440;PMS7003;62870;54.692;25.284;2024-02-14T13:39:26;0.6;0.4;0.2
74440;PMS7003;62870;54.692;25.284;2024-02-14T13:44:40;0.6;0.4;0
74440;PMS7003;62870;54.692;25.284;2024-02-14T13:49:58;0.8;0.2;0
74440;PMS7003;62870;54.692;25.284;2024-02-14T13:54:58;0;0;0
74440;PMS7003;62870;54.692;25.284;2024-02-14T13:59:44;0;0;0
74440;PMS7003;62870;54.692;25.284;2024-02-14T14:04:58;0.6;0.6;0.2
74440;PMS7003;62870;54.692;25.284;2024-02-14T14:09:58;0.2;0.2;0.2
74440;PMS7003;62870;54.692;25.284;2024-02-14T14:14:38;0.5;0.3;0.3
74440;PMS7003;62870;54.692;25.284;2024-02-14T14:19:58;0.2;0.2;0
74440;PMS7003;62870;54.692;25.284;2024-02-14T14:24:38;0.4;0.4;0
74440;PMS7003;62870;54.692;25.284;2024-02-14T14:29:08;0.6;0.4;0
74440;PMS7003;62870;54.692;25.284;2024-02-14T14:34:10;0.4;0.2;0
74440;PMS7003;62870;54.692;25.284;2024-02-14T14:39:26;0.4;0.4;0
74440;PMS7003;62870;54.692;25.284;2024-02-14T14:44:08;0.4;0.2;0.2
74440;PMS7003;62870;54.692;25.284;2024-02-14T14:49:26;0.4;0.4;0.2
74440;PMS7003;62870;54.692;25.284;2024-02-14T14:54:28;0.2;0;0
74440;PMS7003;62870;54.692;25.284;2024-02-14T14:59:58;0.4;0.4;0
74440;PMS7003;62870;54.692;25.284;2024-02-14T15:04:58;0.4;0.2;0.2
74440;PMS7003;62870;54.692;25.284;2024-02-14T15:09:20;0.2;0.2;0
74440;PMS7003;62870;54.692;25.284;2024-02-14T15:14:58;0.5;0;0
74440;PMS7003;62870;54.692;25.284;2024-02-14T15:19:48;0.2;0;0
74440;PMS7003;62870;54.692;25.284;2024-02-14T15:24:44;0;0;0
74440;PMS7003;62870;54.692;25.284;2024-02-14T15:29:34;0;0;0
74440;PMS7003;62870;54.692;25.284;2024-02-14T15:34:44;0.6;0.2;0
74440;PMS7003;62870;54.692;25.284;2024-02-14T15:39:58;0.4;0.2;0.2
74440;PMS7003;62870;54.692;25.284;2024-02-14T15:44:58;0.4;0.2;0
74440;PMS7003;62870;54.692;25.284;2024-02-14T15:49:24;0.2;0;0
74440;PMS7003;62870;54.692;25.284;2024-02-14T15:54:44;0.2;0.2;0.2
74440;PMS7003;62870;54.692;25.284;2024-02-14T15:59:08;0.2;0.2;0.2
74440;PMS7003;62870;54.692;25.284;2024-02-14T16:04:58;0;0;0
74440;PMS7003;62870;54.692;25.284;2024-02-14T16:09:16;0;0;0
74440;PMS7003;62870;54.692;25.284;2024-02-14T16:14:08;0.3;0.3;0.3
74440;PMS7003;62870;54.692;25.284;2024-02-14T16:19:08;0.2;0.2;0
74440;PMS7003;62870;54.692;25.284;2024-02-14T16:24:09;0;0;0
74440;PMS7003;62870;54.692;25.284;2024-02-14T16:29:32;0.2;0;0
74440;PMS7003;62870;54.692;25.284;2024-02-14T16:34:58;0;0;0
74440;PMS7003;62870;54.692;25.284;2024-02-14T16:39:54;0.2;0;0
74440;PMS7003;62870;54.692;25.284;2024-02-14T16:44:36;0.4;0;0
74440;PMS7003;62870;54.692;25.284;2024-02-14T16:49:46;0;0;0
74440;PMS7003;62870;54.692;25.284;2024-02-14T16:54:56;0;0;0
74440;PMS7003;62870;54.692;25.284;2024-02-14T16:59:44;0;0;0
74440;PMS7003;62870;54.692;25.284;2024-02-14T17:04:34;0;0;0
74440;PMS7003;62870;54.692;25.284;2024-02-14T17:09:40;0;0;0
74440;PMS7003;62870;54.692;25.284;2024-02-14T17:14:18;0;0;0
74440;PMS7003;62870;54.692;25.284;2024-02-14T17:19:46;0.2;0;0
74440;PMS7003;62870;54.692;25.284;2024-02-14T17:24:29;0.2;0.2;0
74440;PMS7003;62870;54.692;25.284;2024-02-14T17:29:56;0.4;0.2;0.2
74440;PMS7003;62870;54.692;25.284;2024-02-14T17:34:16;0;0;0
74440;PMS7003;62870;54.692;25.284;2024-02-14T17:39:36;0;0;0
74440;PMS7003;62870;54.692;25.284;2024-02-14T17:44:44;0;0;0
74440;PMS7003;62870;54.692;25.284;2024-02-14T17:49:16;0;0;0
74440;PMS7003;62870;54.692;25.284;2024-02-14T17:54:16;0.6;0.6;0.6
74440;PMS7003;62870;54.692;25.284;2024-02-14T17:59:08;0.2;0.2;0
74440;PMS7003;62870;54.692;25.284;2024-02-14T18:04:34;0.4;0.2;0.2
74440;PMS7003;62870;54.692;25.284;2024-02-14T18:09:16;0;0;0
74440;PMS7003;62870;54.692;25.284;2024-02-14T18:14:58;0.2;0.2;0
74440;PMS7003;62870;54.692;25.284;2024-02-14T18:19:26;0;0;0
74440;PMS7003;62870;54.692;25.284;2024-02-14T18:24:56;0.4;0.4;0.2
74440;PMS7003;62870;54.692;25.284;2024-02-14T18:29:36;0.2;0.2;0
74440;PMS7003;62870;54.692;25.284;2024-02-14T18:34:56;0;0;0
74440;PMS7003;62870;54.692;25.284;2024-02-14T18:39:36;0.2;0;0
74440;PMS7003;62870;54.692;25.284;2024-02-14T18:44:56;0;0;0
74440;PMS7003;62870;54.692;25.284;2024-02-14T18:54:58;0.4;0.2;0.2
74440;PMS7003;62870;54.692;25.284;2024-02-14T18:59:44;0;0;0
74440;PMS7003;62870;54.692;25.284;2024-02-14T19:04:58;0;0;0
74440;PMS7003;62870;54.692;25.284;2024-02-14T19:09:58;0;0;0
74440;PMS7003;62870;54.692;25.284;2024-02-14T19:14:38;0.4;0;0
74440;PMS7003;62870;54.692;25.284;2024-02-14T19:19:58;0.3;0.3;0.3
74440;PMS7003;62870;54.692;25.284;2024-02-14T19:24:24;0.4;0.4;0.2
74440;PMS7003;62870;54.692;25.284;2024-02-14T19:29:26;0.2;0;0
74440;PMS7003;62870;54.692;25.284;2024-02-14T19:34:48;0.2;0;0
74440;PMS7003;62870;54.692;25.284;2024-02-14T19:39:08;0;0;0
74440;PMS7003;62870;54.692;25.284;2024-02-14T19:44:16;0;0;0
74440;PMS7003;62870;54.692;25.284;2024-02-14T19:49:09;0.2;0;0
74440;PMS7003;62870;54.692;25.284;2024-02-14T19:54:28;0;0;0
74440;PMS7003;62870;54.692;25.284;2024-02-14T19:59:58;0.2;0.2;0
74440;PMS7003;62870;54.692;25.284;2024-02-14T20:04:38;0.2;0.2;0.2
74440;PMS7003;62870;54.692;25.284;2024-02-14T20:09:08;0.2;0.2;0.2
74440;PMS7003;62870;54.692;25.284;2024-02-14T20:14:34;0.2;0.2;0.2
74440;PMS7003;62870;54.692;25.284;2024-02-14T20:19:48;0;0;0
74440;PMS7003;62870;54.692;25.284;2024-02-14T20:24:58;0;0;0
74440;PMS7003;62870;54.692;25.284;2024-02-14T20:29:58;0.2;0.2;0
74440;PMS7003;62870;54.692;25.284;2024-02-14T20:34:10;0.4;0;0
74440;PMS7003;62870;54.692;25.284;2024-02-14T20:39:56;0;0;0
74440;PMS7003;62870;54.692;25.284;2024-02-14T20:44:58;0;0;0
74440;PMS7003;62870;54.692;25.284;2024-02-14T20:49:22;0.2;0;0
74440;PMS7003;62870;54.692;25.284;2024-02-14T20:54:58;0;0;0
74440;PMS7003;62870;54.692;25.284;2024-02-14T20:59:16;0;0;0
74440;PMS7003;62870;54.692;25.284;2024-02-14T21:04:08;0.4;0.2;0.2
74440;PMS7003;62870;54.692;25.284;2024-02-14T21:09:58;0.4;0.4;0.2
74440;PMS7003;62870;54.692;25.284;2024-02-14T21:14:34;0.2;0.2;0
74440;PMS7003;62870;54.692;25.284;2024-02-14T21:19:24;0.3;0.3;0.3
74440;PMS7003;62870;54.692;25.284;2024-02-14T21:24:30;0;0;0
74440;PMS7003;62870;54.692;25.284;2024-02-14T21:29:28;0.2;0.2;0.2
74440;PMS7003;62870;54.692;25.284;2024-02-14T21:34:58;0;0;0
74440;PMS7003;62870;54.692;25.284;2024-02-14T21:39:10;0.4;0.2;0.2
74440;PMS7003;62870;54.692;25.284;2024-02-14T21:44:38;0.2;0.2;0.2
74440;PMS7003;62870;54.692;25.284;2024-02-14T21:49:58;0;0;0
74440;PMS7003;62870;54.692;25.284;2024-02-14T21:54:48;0;0;0
74440;PMS7003;62870;54.692;25.284;2024-02-14T21:59:44;0;0;0
74440;PMS7003;62870;54.692;25.284;2024-02-14T22:04:08;0;0;0
74440;PMS7003;62870;54.692;25.284;2024-02-14T22:09:44;0.2;0.2;0
74440;PMS7003;62870;54.692;25.284;2024-02-14T22:14:34;0;0;0
74440;PMS7003;62870;54.692;25.284;2024-02-14T22:19:50;0;0;0
74440;PMS7003;62870;54.692;25.284;2024-02-14T22:24:08;0;0;0
74440;PMS7003;62870;54.692;25.284;2024-02-14T22:29:44;0;0;0
74440;PMS7003;62870;54.692;25.284;2024-02-14T22:34:38;0.2;0.2;0
74440;PMS7003;62870;54.692;25.284;2024-02-14T22:39:58;0;0;0
74440;PMS7003;62870;54.692;25.284;2024-02-14T22:44:44;0;0;0
74440;PMS7003;62870;54.692;25.284;2024-02-14T22:49:48;0;0;0
74440;PMS7003;62870;54.692;25.284;2024-02-14T22:54:16;0;0;0
74440;PMS7003;62870;54.692;25.284;2024-02-14T22:59:48;0;0;0
74440;PMS7003;62870;54.692;25.284;2024-02-14T23:04:16;0.4;0;0
74440;PMS7003;62870;54.692;25.284;2024-02-14T23:09:58;0;0;0
74440;PMS7003;62870;54.692;25.284;2024-02-14T23:14:58;0;0;0
74440;PMS7003;62870;54.692;25.284;2024-02-14T23:19:38;0;0;0
74440;PMS7003;62870;54.692;25.284;2024-02-14T23:24:10;0;0;0
74440;PMS7003;62870;54.692;25.284;2024-02-14T23:29:20;0;0;0
74440;PMS7003;62870;54.692;25.284;2024-02-14T23:34:44;0.2;0.2;0
74440;PMS7003;62870;54.692;25.284;2024-02-14T23:39:34;0;0;0
74440;PMS7003;62870;54.692;25.284;2024-02-14T23:44:48;0;0;0
74440;PMS7003;62870;54.692;25.284;2024-02-14T23:49:34;0;0;0
74440;PMS7003;62870;54.692;25.284;2024-02-14T23:54:10;0;0;0
74440;PMS7003;62870;54.692;25.284;2024-02-14T23:59:08;0;0;0
